x

La Perouse Bank (46206) Wave Buoy

2:00 - Mon 31st Aug 2015 All times are PDT. -7 hours from GMT.

  • Sig Wave height 9.5ft
  • Peak Period 11s
  • Wind
    18mph, 22mph gusts
  • Sea Temp 54°f
  • Luft Temp 59°f
  • Sea Pressure 1008.8mb
  • La Perouse Bank
  • La Perouse Bank

More Historic Weather Station data

Upgrade to MSW Pro to gain access to the past 30 days of data for over 8000 Wavebouys and Weather Stations around the globe.

Join Pro

Comparision Forecast

View Surf forecast
   
Mo 08/31 2:00 9.5ft 11s 18 22 mph 1008.8mb 54f 59f
1:00 9ft 11s 7 9 mph 1009.3mb 54f 58f
12:00 9ft 8s 4 7 mph 1009.6mb 54f 57f
11:00 10ft 10s 4 9 mph 1010mb 55f 56f
10:00 9ft 11s 4 7 mph 1010.1mb 55f 57f
9:00 9.5ft 9s 4 7 mph 1010.3mb 54f 57f
8:00 10.5ft 10s 7 9 mph 1010.2mb 54f 56f
7:00 9.5ft 8s 4 7 mph 1010.1mb 54f 56f
6:00 9ft 11s 2 4 mph 1009.7mb 54f 56f
5:00 9ft 11s 9 11 mph 1009.6mb 55f 57f
4:00 9ft 10s 4
mph
1009.5mb 55f 57f
3:00 9.5ft 11s 7 9 mph 1009.4mb 55f 57f
2:00 8.5ft 8s 9 11 mph 1009.1mb 55f 58f
1:00 9ft 7s 9 11 mph 1009.1mb 55f 58f
12:00 9ft 8s 13 18 mph 1009mb 55f 59f
So 08/30 11:00 9.5ft 10s 16 18 mph 1008.8mb 55f 59f
10:00 9ft 8s 18 20 mph 1008.8mb 55f 59f
9:00 9.5ft 11s 25 36 mph 1008.5mb 54f 59f
8:00 9ft 11s 27 31 mph 1008.6mb 55f 59f
7:00 9ft 11s 20 25 mph 1009.7mb 54f 58f
6:00 9ft 12s 18 22 mph 1010.7mb 55f 59f
5:00 9ft 11s 13 16 mph 1011.3mb 55f 59f
4:00 9.5ft 12s 11 13 mph 1011.3mb 56f 59f
3:00 10ft 11s 9 11 mph 1011mb 56f 59f
2:00 9ft 10s 7 9 mph 1010.8mb 56f 59f
1:00 9ft 10s 9
mph
1010.3mb 56f 59f
12:00 9ft 8s 7 9 mph 1010mb 56f 58f
11:00 9.5ft 12s 9
mph
1009.6mb 55f 57f
10:00 9ft 10s 9 11 mph 1009mb 55f 57f
9:00 9.5ft 13s 9 11 mph 1008.3mb 54f 57f
8:00 10ft 13s 7 9 mph 1007.9mb 54f 56f
7:00 10.5ft 10s 7 9 mph 1007.3mb 55f 56f
6:00 10ft 10s 7 11 mph 1006.5mb 54f 56f
5:00 11.5ft 10s 7 9 mph 1005.9mb 54f 56f
4:00 11ft 9s 7 11 mph 1005.5mb 54f 57f
3:00 11.5ft 10s 4 7 mph 1005mb 54f 57f
2:00 11ft 10s 13 16 mph 1004.4mb 54f 58f
1:00 12ft 10s 9 11 mph 1004.2mb 54f 56f
12:00 11ft 11s 9 13 mph 1004mb 54f 57f
Sa 08/29 11:00 11ft 11s 9 11 mph 1004mb 54f 56f
10:00 11ft 11s 9 11 mph 1003.9mb 54f 57f
9:00 10ft 10s 11 13 mph 1003.8mb 54f 57f
8:00 11.5ft 10s 9 11 mph 1003.4mb 54f 58f
7:00 11ft 12s 9
mph
1002.8mb 54f 58f
6:00 11ft 12s 9 13 mph 1002mb 55f 58f
5:00 10.5ft 11s 4 9 mph 1001mb 55f 57f
4:00 10ft 10s 7 9 mph 1000.2mb 54f 57f
3:00 8.5ft 8s 13 22 mph 1000.1mb 54f 56f
2:00 7ft 8s 18 20 mph 998.7mb 54f 58f
1:00 8ft 8s 11 13 mph 996.3mb 54f 57f
12:00 8.5ft 8s 13 16 mph 993.6mb 54f 57f
11:00 8.5ft 7s 13 18 mph 991.9mb 55f 57f
10:00 9ft 6s 27 34 mph 992mb 55f 58f
9:00 6.5ft 5s 27 31 mph 992.5mb 56f 58f
8:00 6.5ft 5s 25 31 mph 992.7mb 56f 59f
7:00 6ft 5s 31 38 mph 992.2mb 56f 58f
6:00 4.5ft 15s 29 36 mph 993mb 56f 58f
5:00 3.5ft 16s 27 31 mph 994.6mb 56f 58f
4:00 3ft 14s 18 22 mph 996.8mb 56f 58f
3:00 3ft 17s 9 11 mph 998.4mb 57f 58f
2:00 3.5ft 16s 4 7 mph 1000.4mb 57f 58f
1:00 3.5ft 15s 9 11 mph 1001.9mb 58f 58f
12:00 3.5ft 14s 9 11 mph 1003.6mb 58f 58f
Fr 08/28 11:00 3.5ft 16s 7 9 mph 1004.8mb 58f 58f
10:00 3.5ft 15s 9
mph
1006.4mb 58f 58f
9:00 4ft 15s 7
mph
1007.3mb 58f 58f
8:00 3.5ft 13s 7
mph
1008.2mb 58f 59f
7:00 3.5ft 14s 9 11 mph 1009.3mb 58f 59f
6:00 3.5ft 16s 9 11 mph 1010.2mb 58f 59f
5:00 3.5ft 15s 11 13 mph 1010.8mb 58f 59f
4:00 3.5ft 16s 9 11 mph 1011.8mb 58f 59f
3:00 4ft 16s 9
mph
1012.4mb 58f 59f
2:00 4ft 15s 7 9 mph 1012.8mb 58f 58f
1:00 4.5ft 15s 7 9 mph 1013.1mb 57f 58f
12:00 4ft 17s 7
mph
1013mb 57f 58f
11:00 4.5ft 15s 9 11 mph 1012.9mb 57f 58f
10:00 4.5ft 6s 9 11 mph 1012.7mb 57f 59f
9:00 5ft 14s 13 16 mph 1012.6mb 57f 59f
8:00 5ft 16s 13 16 mph 1012.4mb 58f 59f
7:00 4.5ft 14s 16 18 mph 1012.1mb 57f 58f
6:00 4.5ft 14s 16 18 mph 1011.9mb 58f 59f
5:00 4ft 14s 22 27 mph 1011.9mb 57f 58f
4:00 3.5ft 14s 22 27 mph 1012.2mb 58f 57f
3:00 3.5ft 14s 18 20 mph 1012.8mb 57f 58f
2:00 3.5ft 15s 13 16 mph 1013.4mb 57f 58f
1:00 3.5ft 14s 13 16 mph 1013.8mb 57f 58f
12:00 3.5ft 15s 11 13 mph 1014.4mb 58f 59f